Decoded Metar for YPLM (LEARMONTH in AUSTRALIA) (IATA:LEA) | Meteo·Mobile Aviation Weather
aviador You're here:

YPLM Decoded Metar

LEARMONTH in AUSTRALIA
Report Time2019-02-20 01:30:00
UTC Time2019-02-20 01:42:52
Flight Rules vfr VFR
Wind180° at 13 kt
W.Decomp.*RWY 18: 13.0 kt HW 0.2 kt LCW
W.Rank180° ranks 8
Current wind is above 180° avg. (9.0)
Visibility9999 m
Phenomena:N/A
Clouds:N/A
Expected CloudBase > 7,200 ft AGL from Temp-Dew spread
CeilingNone
Temp31°C (ISA +16)
Dew Point13°C (33% RH)
Heat Index30.0°C
AAT27.2°C
QNH1013 hPa
Density Alt2,057 ft
Elevation20 ft
Report Wrong Elevation
Raw Report
METAR YPLM 200130Z AUTO 18013KT 9999 // NCD 31/13 Q1013
RF00.0/000.0=

Extra information for YPLM:More info

Metar Taf Metar & Taf Last 4 Metars F.Rules Stats Wind Profile Meteogram Temp Stats Airport Information Weather charts Add Link Nearby VenuesMetar ALERT Operation Metar Decoded Social comments